createdAt,value
2023-01-21T00:02:41.718Z,12.83
2023-01-21T00:05:29.088Z,15.30
2023-01-21T00:08:17.121Z,12.23
2023-01-21T00:11:07.571Z,14.93
2023-01-21T00:13:54.236Z,11.80
2023-01-21T00:16:40.943Z,14.47
2023-01-21T00:19:28.959Z,11.37
2023-01-21T00:22:15.619Z,15.33
2023-01-21T00:25:03.718Z,13.83
2023-01-21T00:27:50.435Z,15.00
2023-01-21T00:30:37.078Z,14.37
2023-01-21T00:33:24.120Z,12.80
2023-01-21T00:36:12.985Z,12.60
2023-01-21T01:12:35.638Z,14.53
2023-01-21T01:19:02.508Z,16.33
2023-01-21T01:21:49.301Z,12.70
2023-01-21T01:24:35.744Z,13.13
2023-01-21T01:27:22.244Z,13.27
2023-01-21T01:30:10.892Z,11.70
2023-01-21T01:32:57.642Z,12.93
2023-01-21T01:35:46.990Z,14.77
2023-01-21T01:38:34.741Z,12.73
2023-01-21T01:41:24.522Z,13.67
2023-01-21T01:44:58.688Z,17.23
2023-01-21T01:47:50.040Z,13.37
2023-01-21T01:50:39.667Z,13.13
2023-01-21T01:53:31.148Z,12.73
2023-01-21T01:56:18.026Z,14.13
2023-01-21T01:59:04.994Z,14.20
2023-01-21T02:01:52.059Z,13.43
2023-01-21T02:04:45.137Z,15.37
2023-01-21T02:07:39.319Z,12.70
2023-01-21T02:10:27.257Z,14.97
2023-01-21T02:13:14.233Z,14.27
2023-01-21T02:16:27.355Z,12.67
2023-01-21T02:20:09.914Z,13.03
2023-01-21T02:23:06.001Z,16.63
2023-01-21T02:26:35.786Z,18.03
2023-01-21T02:30:02.750Z,14.30
2023-01-21T02:33:38.919Z,13.93
2023-01-21T02:36:43.422Z,14.00
2023-01-21T02:39:46.909Z,15.03
2023-01-21T02:42:45.763Z,14.53
2023-01-21T02:45:42.227Z,11.23
2023-01-21T02:48:40.404Z,17.47
2023-01-21T02:51:27.234Z,12.70
2023-01-21T02:54:16.847Z,13.73
2023-01-21T02:57:04.083Z,11.23
2023-01-21T02:59:56.112Z,19.53
2023-01-21T03:03:24.098Z,14.47
2023-01-21T03:06:42.483Z,16.90
2023-01-21T03:09:31.569Z,15.43
2023-01-21T03:12:36.910Z,17.80
2023-01-21T03:15:47.755Z,16.93
2023-01-21T03:18:42.882Z,19.60
2023-01-21T03:21:34.785Z,16.13
2023-01-21T03:24:22.160Z,13.80
2023-01-21T03:27:09.957Z,19.90
2023-01-21T03:30:03.050Z,15.83
2023-01-21T03:32:52.434Z,19.97
2023-01-21T03:35:45.540Z,15.83
2023-01-21T03:38:40.058Z,16.47
2023-01-21T03:41:33.920Z,16.40
2023-01-21T03:44:20.870Z,19.47
2023-01-21T03:47:20.658Z,16.37
2023-01-21T03:50:13.525Z,18.17
2023-01-21T03:53:00.091Z,18.60
2023-01-21T03:55:50.583Z,18.83
2023-01-21T03:58:37.617Z,21.90
2023-01-21T04:01:24.597Z,19.43
2023-01-21T04:04:11.679Z,18.83
2023-01-21T04:06:58.133Z,25.37
2023-01-21T04:09:45.029Z,26.07
2023-01-21T04:12:33.391Z,24.20
2023-01-21T04:15:19.927Z,23.03
2023-01-21T04:18:06.665Z,18.33
2023-01-21T04:20:53.278Z,18.17
2023-01-21T04:23:40.192Z,18.43
2023-01-21T04:26:26.809Z,16.97
2023-01-21T04:29:15.070Z,19.50
2023-01-21T04:32:01.920Z,22.23
2023-01-21T04:34:48.380Z,19.57
2023-01-21T04:37:35.336Z,17.70
2023-01-21T04:40:21.947Z,20.13
2023-01-21T04:43:08.637Z,24.80
2023-01-21T04:45:56.788Z,16.07
2023-01-21T04:48:43.696Z,19.13
2023-01-21T04:51:30.190Z,16.13
2023-01-21T04:54:17.051Z,20.23
2023-01-21T04:57:03.716Z,25.10
2023-01-21T04:59:50.999Z,22.30
2023-01-21T05:02:39.150Z,20.33
2023-01-21T05:05:25.898Z,22.10
2023-01-21T05:08:12.293Z,18.53
2023-01-21T05:10:58.807Z,15.67
2023-01-21T05:13:45.642Z,21.07
2023-01-21T05:16:32.210Z,19.43
2023-01-21T05:19:20.017Z,20.73
2023-01-21T05:22:06.732Z,17.30
2023-01-21T05:24:53.305Z,22.50
2023-01-21T05:27:39.717Z,21.43
2023-01-21T05:30:26.403Z,20.20
2023-01-21T05:33:13.111Z,23.57
2023-01-21T05:36:01.738Z,23.10
2023-01-21T05:38:48.605Z,21.97
2023-01-21T05:41:35.426Z,23.47
2023-01-21T05:44:21.993Z,21.97
2023-01-21T05:47:08.796Z,26.73
2023-01-21T05:49:55.500Z,21.03
2023-01-21T05:52:43.478Z,17.93
2023-01-21T05:55:30.133Z,21.00
2023-01-21T05:58:16.746Z,23.50
2023-01-21T06:01:03.865Z,20.17
2023-01-21T06:03:50.530Z,18.47
2023-01-21T06:06:37.313Z,13.23
2023-01-21T06:09:25.471Z,16.67
2023-01-21T06:12:11.960Z,22.83
2023-01-21T06:14:59.303Z,18.53
2023-01-21T06:17:47.374Z,19.90
2023-01-21T06:20:34.556Z,19.10
2023-01-21T06:23:21.381Z,18.33
2023-01-21T06:26:09.290Z,22.90
2023-01-21T06:28:57.150Z,23.57
2023-01-21T06:31:43.941Z,28.23
2023-01-21T06:34:31.005Z,21.10
2023-01-21T06:37:17.564Z,18.60
2023-01-21T06:40:04.490Z,25.30
2023-01-21T06:42:53.783Z,23.67
2023-01-21T06:45:40.364Z,22.37
2023-01-21T06:48:26.982Z,21.57
2023-01-21T06:51:13.911Z,14.63
2023-01-21T06:54:00.760Z,22.17
2023-01-21T06:56:47.666Z,18.17
2023-01-21T06:59:35.711Z,25.33
2023-01-21T07:02:22.424Z,18.53
2023-01-21T07:05:09.418Z,23.03
2023-01-21T07:07:56.775Z,17.57
2023-01-21T07:10:46.177Z,22.80
2023-01-21T07:13:34.225Z,20.13
2023-01-21T07:16:22.492Z,20.73
2023-01-21T07:19:08.923Z,24.53
2023-01-21T07:21:55.952Z,29.37
2023-01-21T07:24:42.512Z,28.00
2023-01-21T07:27:30.348Z,27.30
2023-01-21T07:30:19.795Z,26.97
2023-01-21T07:33:09.580Z,27.33
2023-01-21T07:35:56.591Z,25.53
2023-01-21T07:38:43.531Z,19.60
2023-01-21T07:41:30.020Z,23.00
2023-01-21T07:44:16.810Z,21.07
2023-01-21T07:47:03.504Z,22.93
2023-01-21T07:49:51.894Z,19.07
2023-01-21T07:52:38.974Z,24.83
2023-01-21T07:55:25.927Z,27.90
2023-01-21T07:58:12.698Z,24.20
2023-01-21T08:00:59.630Z,22.23
2023-01-21T08:03:46.152Z,23.17
2023-01-21T08:06:34.334Z,31.23
2023-01-21T08:09:21.276Z,27.57
2023-01-21T08:12:09.935Z,25.73
2023-01-21T08:14:56.874Z,25.93
2023-01-21T08:17:44.689Z,35.93
2023-01-21T08:20:32.383Z,25.93
2023-01-21T08:23:20.604Z,32.80
2023-01-21T08:26:08.252Z,27.70
2023-01-21T08:28:55.381Z,32.07
2023-01-21T08:31:41.896Z,25.80
2023-01-21T08:34:28.912Z,27.13
2023-01-21T08:37:18.850Z,24.53
2023-01-21T08:40:08.735Z,36.43
2023-01-21T08:42:59.553Z,30.40
2023-01-21T08:45:46.623Z,30.03
2023-01-21T08:48:33.684Z,26.20
2023-01-21T08:51:20.453Z,24.00
2023-01-21T08:54:07.305Z,27.97
2023-01-21T08:56:55.645Z,32.03
2023-01-21T08:59:45.183Z,27.23
2023-01-21T09:02:31.972Z,32.27
2023-01-21T09:05:19.094Z,30.97
2023-01-21T09:08:06.216Z,23.63
2023-01-21T09:11:01.806Z,23.87
2023-01-21T09:13:49.901Z,28.83
2023-01-21T09:16:37.224Z,25.23
2023-01-21T09:19:25.003Z,27.10
2023-01-21T09:22:11.550Z,26.37
2023-01-21T09:24:58.164Z,27.80
2023-01-21T09:27:44.898Z,33.27
2023-01-21T09:30:33.300Z,26.57
2023-01-21T09:33:20.076Z,30.77
2023-01-21T09:36:09.654Z,29.77
2023-01-21T09:38:56.856Z,27.30
2023-01-21T09:41:49.315Z,31.87
2023-01-21T09:44:44.691Z,26.50
2023-01-21T09:47:39.739Z,28.40
2023-01-21T09:50:26.519Z,25.10
2023-01-21T09:53:28.891Z,28.13
2023-01-21T09:56:26.858Z,33.80
2023-01-21T09:59:23.433Z,30.57
2023-01-21T10:02:25.850Z,33.27
2023-01-21T10:05:40.002Z,21.20
2023-01-21T10:08:38.359Z,28.27
2023-01-21T10:11:43.077Z,25.03
2023-01-21T10:14:58.254Z,27.73
2023-01-21T10:17:56.160Z,25.63
2023-01-21T10:20:53.480Z,21.90
2023-01-21T10:23:46.555Z,24.10
2023-01-21T10:26:36.088Z,22.93
2023-01-21T10:29:26.581Z,28.20
2023-01-21T10:32:19.433Z,26.73
2023-01-21T10:35:18.704Z,19.47
2023-01-21T10:38:22.090Z,23.00
2023-01-21T10:41:29.470Z,22.73
2023-01-21T10:44:28.989Z,20.37
2023-01-21T10:47:28.735Z,19.70
2023-01-21T10:50:32.832Z,24.03
2023-01-21T10:53:30.556Z,24.87
2023-01-21T10:56:35.039Z,17.03
2023-01-21T10:59:28.089Z,22.33
2023-01-21T11:02:30.798Z,21.37
2023-01-21T11:05:19.566Z,16.83
2023-01-21T11:08:06.572Z,23.40
2023-01-21T11:10:56.112Z,20.30
2023-01-21T11:13:42.995Z,20.63
2023-01-21T11:16:42.901Z,26.50
2023-01-21T11:19:31.821Z,14.70
2023-01-21T11:22:23.414Z,18.80
2023-01-21T11:25:35.528Z,21.87
2023-01-21T11:28:26.879Z,13.97
2023-01-21T11:31:17.624Z,18.50
2023-01-21T11:34:14.273Z,17.57
2023-01-21T11:37:04.262Z,15.27
2023-01-21T11:39:55.737Z,21.37
2023-01-21T11:42:48.925Z,17.77
2023-01-21T11:45:38.401Z,22.00
2023-01-21T11:48:26.024Z,21.00
2023-01-21T11:51:13.824Z,17.53
2023-01-21T11:54:14.765Z,21.20
2023-01-21T11:57:03.662Z,17.77
2023-01-21T11:59:53.410Z,22.70
2023-01-21T12:02:47.317Z,22.73
2023-01-21T12:05:37.912Z,19.60
2023-01-21T12:08:28.201Z,16.17
2023-01-21T12:11:22.312Z,16.67
2023-01-21T12:14:21.747Z,18.50
2023-01-21T12:17:21.861Z,19.13
2023-01-21T12:20:26.029Z,21.97
2023-01-21T12:23:43.982Z,19.47
2023-01-21T12:26:39.734Z,21.53
2023-01-21T12:29:55.799Z,22.43
2023-01-21T12:32:49.643Z,18.43
2023-01-21T12:35:45.285Z,27.27
2023-01-21T12:38:40.844Z,19.93
2023-01-21T12:41:31.947Z,17.00
2023-01-21T12:44:29.504Z,19.60
2023-01-21T12:47:29.751Z,18.30
2023-01-21T12:50:41.179Z,17.93
2023-01-21T12:53:41.323Z,17.53
2023-01-21T12:56:38.619Z,20.57
2023-01-21T12:59:33.149Z,20.93
2023-01-21T13:02:32.930Z,18.03
2023-01-21T13:05:33.672Z,15.47
2023-01-21T13:08:41.924Z,17.43
2023-01-21T13:11:34.288Z,20.57
2023-01-21T13:14:37.528Z,15.70
2023-01-21T13:17:34.854Z,16.93
2023-01-21T13:20:29.086Z,19.43
2023-01-21T13:23:41.952Z,19.93
2023-01-21T13:26:59.383Z,21.47
2023-01-21T13:30:21.472Z,21.10
2023-01-21T13:33:42.699Z,15.67
2023-01-21T13:37:04.824Z,16.43
2023-01-21T13:40:36.554Z,17.67
2023-01-21T13:43:56.315Z,17.10
2023-01-21T13:47:19.310Z,18.40
2023-01-21T13:50:22.169Z,19.53
2023-01-21T13:53:41.237Z,15.80
2023-01-21T13:57:18.524Z,16.40
2023-01-21T14:00:39.350Z,14.53
2023-01-21T14:03:36.836Z,20.33
2023-01-21T14:06:56.125Z,17.30
2023-01-21T14:10:04.932Z,13.60
2023-01-21T14:13:53.677Z,15.07
2023-01-21T14:17:42.074Z,14.90
2023-01-21T14:21:15.424Z,20.17
2023-01-21T14:24:36.763Z,12.87
2023-01-21T14:27:34.868Z,14.50
2023-01-21T14:30:32.020Z,15.03
2023-01-21T14:33:28.308Z,15.17
2023-01-21T14:36:33.777Z,14.83
2023-01-21T14:39:50.762Z,14.37
2023-01-21T14:42:48.140Z,11.07
2023-01-21T14:45:59.114Z,13.43
2023-01-21T14:49:00.338Z,13.43
2023-01-21T14:52:05.400Z,12.30
2023-01-21T14:54:52.271Z,11.60
2023-01-21T14:57:44.243Z,10.57
2023-01-21T15:00:38.784Z,13.33
2023-01-21T15:03:32.127Z,13.97
2023-01-21T15:06:24.718Z,11.77
2023-01-21T15:09:22.412Z,12.27
2023-01-21T15:12:21.790Z,15.30
2023-01-21T15:15:28.910Z,17.67
2023-01-21T15:18:36.816Z,9.87
2023-01-21T15:21:38.907Z,9.03
2023-01-21T15:24:30.345Z,11.77
2023-01-21T15:27:20.361Z,14.10
2023-01-21T15:30:30.046Z,16.00
2023-01-21T15:33:16.950Z,12.37
2023-01-21T15:36:10.873Z,13.37
2023-01-21T15:39:03.826Z,14.80
2023-01-21T15:42:10.353Z,11.97
2023-01-21T15:45:13.560Z,13.47
2023-01-21T15:48:25.399Z,12.37
2023-01-21T15:51:55.249Z,11.23
2023-01-21T15:54:58.001Z,12.80
2023-01-21T15:58:15.097Z,12.20
2023-01-21T16:01:13.261Z,11.97
2023-01-21T16:04:30.362Z,11.60
2023-01-21T16:07:34.724Z,13.17
2023-01-21T16:10:32.359Z,12.30
2023-01-21T16:13:40.046Z,15.20
2023-01-21T16:16:48.086Z,14.03
2023-01-21T16:19:43.042Z,14.70
2023-01-21T16:22:38.390Z,13.07
2023-01-21T16:25:47.955Z,13.57
2023-01-21T16:28:46.373Z,16.33
2023-01-21T16:31:47.110Z,16.33
2023-01-21T16:34:50.977Z,14.00
2023-01-21T16:37:39.026Z,14.73
2023-01-21T16:40:33.551Z,18.13
2023-01-21T16:43:26.943Z,21.37
2023-01-21T16:46:17.751Z,17.57
2023-01-21T16:49:19.669Z,18.23
2023-01-21T16:52:08.070Z,18.17
2023-01-21T16:54:58.830Z,19.50
2023-01-21T16:57:52.684Z,24.67
2023-01-21T17:00:39.578Z,16.60
2023-01-21T17:03:26.330Z,20.10
2023-01-21T17:06:21.028Z,20.80
2023-01-21T17:09:27.919Z,17.47
2023-01-21T17:12:26.584Z,20.90
2023-01-21T17:15:29.809Z,18.07
2023-01-21T17:18:24.065Z,17.83
2023-01-21T17:21:15.724Z,16.83
2023-01-21T17:24:07.248Z,21.13
2023-01-21T17:26:58.440Z,24.43
2023-01-21T17:29:46.912Z,19.33
2023-01-21T17:32:53.957Z,18.57
2023-01-21T17:36:08.533Z,15.97
2023-01-21T17:38:55.024Z,19.83
2023-01-21T17:41:46.606Z,18.20
2023-01-21T17:44:34.859Z,15.87
2023-01-21T17:47:27.204Z,21.30
2023-01-21T17:50:26.863Z,16.80
2023-01-21T17:53:55.759Z,20.83
2023-01-21T17:56:50.659Z,19.50
2023-01-21T17:59:40.936Z,18.53
2023-01-21T18:02:29.968Z,21.83
2023-01-21T18:05:24.338Z,18.13
2023-01-21T18:08:15.317Z,19.37
2023-01-21T18:11:02.427Z,20.00
2023-01-21T18:13:52.875Z,23.00
2023-01-21T18:16:39.943Z,23.50
2023-01-21T18:19:35.801Z,21.80
2023-01-21T18:22:30.205Z,20.33
2023-01-21T18:25:21.105Z,20.57
2023-01-21T18:31:11.257Z,23.07
2023-01-21T18:34:24.058Z,24.10
2023-01-21T18:40:50.936Z,17.93
2023-01-21T18:43:38.068Z,21.10
2023-01-21T18:46:25.135Z,23.70
2023-01-21T18:49:17.014Z,24.67
2023-01-21T18:52:03.908Z,20.10
2023-01-21T18:54:50.842Z,24.13
2023-01-21T18:57:41.560Z,22.10
2023-01-21T19:00:32.153Z,21.77
2023-01-21T19:03:19.448Z,24.67
2023-01-21T19:06:15.410Z,20.83
2023-01-21T19:09:01.984Z,22.27
2023-01-21T19:11:49.360Z,24.33
2023-01-21T19:14:37.266Z,23.40
2023-01-21T19:17:28.824Z,29.90
2023-01-21T19:20:18.795Z,24.20
2023-01-21T19:23:07.750Z,24.67
2023-01-21T19:25:58.415Z,23.90
2023-01-21T19:28:45.190Z,23.27
2023-01-21T19:31:33.983Z,22.60
2023-01-21T19:34:21.843Z,27.67
2023-01-21T19:37:14.696Z,19.90
2023-01-21T19:40:01.419Z,27.20
2023-01-21T19:42:48.757Z,21.50
2023-01-21T19:45:35.586Z,23.03
2023-01-21T19:48:23.777Z,22.90
2023-01-21T19:51:10.719Z,21.67
2023-01-21T19:53:57.158Z,25.00
2023-01-21T19:56:44.347Z,20.50
2023-01-21T19:59:31.207Z,25.93
2023-01-21T20:02:18.040Z,23.70
2023-01-21T20:05:07.335Z,23.03
2023-01-21T20:07:55.902Z,22.97
2023-01-21T20:10:43.803Z,22.47
2023-01-21T20:13:35.560Z,19.03
2023-01-21T20:16:23.538Z,18.93
2023-01-21T20:19:15.732Z,23.20
2023-01-21T20:22:07.743Z,21.50
2023-01-21T20:24:55.713Z,20.07
2023-01-21T20:27:44.011Z,25.17
2023-01-21T20:30:33.507Z,19.00
2023-01-21T20:33:22.764Z,16.63
2023-01-21T20:36:17.999Z,17.67
2023-01-21T20:39:07.640Z,19.63
2023-01-21T20:41:54.944Z,19.00
2023-01-21T20:44:41.557Z,19.37
2023-01-21T20:47:38.115Z,19.13
2023-01-21T20:50:31.531Z,21.90
2023-01-21T20:53:18.638Z,22.23
2023-01-21T20:56:19.321Z,21.47
2023-01-21T20:59:06.081Z,18.83
2023-01-21T21:01:55.356Z,22.10
2023-01-21T21:04:42.060Z,19.27
2023-01-21T21:07:28.911Z,18.20
2023-01-21T21:10:21.953Z,18.60
2023-01-21T21:13:10.959Z,21.03
2023-01-21T21:15:57.772Z,22.43
2023-01-21T21:18:44.427Z,20.67
2023-01-21T21:21:31.310Z,17.70
2023-01-21T21:24:22.998Z,17.73
2023-01-21T21:27:12.038Z,17.40
2023-01-21T21:30:00.487Z,16.10
2023-01-21T21:32:47.617Z,16.70
2023-01-21T21:35:36.895Z,17.23
2023-01-21T21:38:25.206Z,20.20
2023-01-21T21:41:35.531Z,14.77
2023-01-21T21:44:22.564Z,16.37
2023-01-21T21:47:32.077Z,20.30
2023-01-21T21:50:18.637Z,20.20
2023-01-21T21:53:05.743Z,15.40
2023-01-21T21:55:52.390Z,16.43
2023-01-21T21:58:39.225Z,21.77
2023-01-21T22:01:31.103Z,16.40
2023-01-21T22:04:21.134Z,19.43
2023-01-21T22:07:12.458Z,19.37
2023-01-21T22:09:59.219Z,14.07
2023-01-21T22:12:45.972Z,20.53
2023-01-21T22:15:32.943Z,21.83
2023-01-21T22:18:19.806Z,20.13
2023-01-21T22:21:11.916Z,16.93
2023-01-21T22:23:58.855Z,20.03
2023-01-21T22:26:45.558Z,23.50
2023-01-21T22:29:32.400Z,18.60
2023-01-21T22:32:19.259Z,18.30
2023-01-21T22:35:07.203Z,19.83
2023-01-21T22:37:55.491Z,18.37
2023-01-21T22:40:42.119Z,18.73
2023-01-21T22:43:29.207Z,16.43
2023-01-21T22:46:19.096Z,19.23
2023-01-21T22:49:06.017Z,17.17
2023-01-21T22:51:52.905Z,16.70
2023-01-21T22:54:41.173Z,19.60
2023-01-21T22:57:27.762Z,21.60
2023-01-21T23:00:31.668Z,19.87
2023-01-21T23:03:19.420Z,19.90
2023-01-21T23:06:07.907Z,16.60
2023-01-21T23:08:55.585Z,15.90
2023-01-21T23:11:44.942Z,15.83
2023-01-21T23:14:31.658Z,17.77
2023-01-21T23:17:18.403Z,16.23
2023-01-21T23:20:06.511Z,16.47
2023-01-21T23:22:55.022Z,13.17
2023-01-21T23:25:42.021Z,15.47
2023-01-21T23:28:29.969Z,15.67
2023-01-21T23:31:18.653Z,14.37
2023-01-21T23:34:05.267Z,14.73
2023-01-21T23:36:52.098Z,15.23
2023-01-21T23:39:39.126Z,14.87
2023-01-21T23:42:25.948Z,14.37
2023-01-21T23:45:14.284Z,15.67
2023-01-21T23:48:01.279Z,13.30
2023-01-21T23:50:48.244Z,18.20
2023-01-21T23:53:35.535Z,16.83
2023-01-21T23:56:25.706Z,20.00
2023-01-21T23:59:12.975Z,17.13
